createdAt,value
2018-02-21T00:00:55.980Z,7.50
2018-02-21T00:03:22.191Z,25.20
2018-02-21T00:05:48.743Z,4.30
2018-02-21T00:08:14.940Z,8.57
2018-02-21T00:10:41.118Z,10.20
2018-02-21T00:13:07.337Z,9.97
2018-02-21T00:15:33.529Z,11.43
2018-02-21T00:17:59.740Z,10.83
2018-02-21T00:20:25.919Z,6.33
2018-02-21T00:22:52.081Z,7.07
2018-02-21T00:25:18.324Z,17.40
2018-02-21T00:27:44.588Z,8.87
2018-02-21T00:30:10.772Z,5.70
2018-02-21T00:32:36.993Z,5.90
2018-02-21T00:35:03.184Z,9.17
2018-02-21T00:37:29.444Z,6.63
2018-02-21T00:39:55.938Z,8.13
2018-02-21T00:42:22.176Z,10.70
2018-02-21T00:44:48.350Z,5.17
2018-02-21T00:47:14.830Z,5.00
2018-02-21T00:49:41.032Z,4.37
2018-02-21T00:52:07.479Z,7.03
2018-02-21T00:54:33.721Z,3.97
2018-02-21T00:56:59.907Z,6.23
2018-02-21T00:59:26.120Z,11.93
2018-02-21T01:01:52.346Z,6.27
2018-02-21T01:04:18.549Z,3.47
2018-02-21T01:06:44.715Z,6.03
2018-02-21T01:09:11.034Z,5.50
2018-02-21T01:11:37.212Z,9.17
2018-02-21T01:14:03.406Z,5.80
2018-02-21T01:16:29.593Z,4.77
2018-02-21T01:18:55.771Z,5.63
2018-02-21T01:21:21.940Z,6.10
2018-02-21T01:23:48.153Z,5.93
2018-02-21T01:26:14.320Z,8.40
2018-02-21T01:28:40.803Z,4.70
2018-02-21T01:31:06.945Z,8.50
2018-02-21T01:33:33.472Z,8.20
2018-02-21T01:35:59.707Z,8.10
2018-02-21T01:38:25.911Z,5.23
2018-02-21T01:40:52.356Z,5.47
2018-02-21T01:43:18.575Z,6.87
2018-02-21T01:45:45.022Z,6.23
2018-02-21T01:48:11.208Z,4.10
2018-02-21T01:50:49.729Z,4.30
2018-02-21T01:53:15.916Z,8.10
2018-02-21T01:55:42.426Z,11.20
2018-02-21T01:58:08.591Z,4.60
2018-02-21T02:00:34.776Z,9.30
2018-02-21T02:03:01.002Z,8.43
2018-02-21T02:05:27.254Z,5.67
2018-02-21T02:07:53.410Z,5.87
2018-02-21T02:10:19.616Z,5.47
2018-02-21T02:12:45.843Z,5.43
2018-02-21T02:15:12.070Z,5.90
2018-02-21T02:17:38.254Z,7.70
2018-02-21T02:20:04.711Z,4.13
2018-02-21T02:22:30.907Z,7.20
2018-02-21T02:24:57.370Z,3.40
2018-02-21T02:27:23.614Z,7.50
2018-02-21T02:29:49.790Z,7.13
2018-02-21T02:32:15.974Z,6.27
2018-02-21T02:34:42.204Z,6.20
2018-02-21T02:37:08.713Z,5.40
2018-02-21T02:39:47.133Z,4.50
2018-02-21T02:42:13.305Z,4.60
2018-02-21T02:44:39.469Z,5.40
2018-02-21T02:47:05.673Z,4.70
2018-02-21T02:49:31.909Z,4.93
2018-02-21T02:51:58.111Z,11.20
2018-02-21T02:54:24.293Z,5.10
2018-02-21T02:56:50.829Z,5.87
2018-02-21T02:59:17.062Z,7.13
2018-02-21T03:01:43.244Z,4.13
2018-02-21T03:04:09.448Z,3.83
2018-02-21T03:06:35.695Z,4.80
2018-02-21T03:09:01.898Z,8.70
2018-02-21T03:11:28.091Z,4.33
2018-02-21T03:13:54.445Z,3.80
2018-02-21T03:16:20.625Z,5.17
2018-02-21T03:18:46.782Z,5.83
2018-02-21T03:21:13.001Z,4.87
2018-02-21T03:23:39.251Z,4.63
2018-02-21T03:26:05.427Z,4.90
2018-02-21T03:28:31.894Z,5.30
2018-02-21T03:30:58.142Z,5.60
2018-02-21T03:33:24.659Z,5.67
2018-02-21T03:35:50.870Z,4.40
2018-02-21T03:38:17.109Z,9.40
2018-02-21T03:40:43.288Z,5.53
2018-02-21T03:43:09.458Z,7.43
2018-02-21T03:45:36.005Z,5.27
2018-02-21T03:48:02.176Z,4.20
2018-02-21T03:50:28.342Z,5.43
2018-02-21T03:52:54.566Z,5.30
2018-02-21T03:55:21.019Z,4.83
2018-02-21T03:57:47.559Z,5.00
2018-02-21T04:00:13.744Z,5.30
2018-02-21T04:02:39.950Z,8.60
2018-02-21T04:05:06.192Z,3.70
2018-02-21T04:07:32.379Z,4.50
2018-02-21T04:09:58.592Z,5.77
2018-02-21T04:12:25.131Z,5.73
2018-02-21T04:14:51.324Z,6.10
2018-02-21T04:17:17.518Z,4.07
2018-02-21T04:19:43.715Z,4.40
2018-02-21T04:22:09.952Z,3.97
2018-02-21T04:24:36.125Z,4.20
2018-02-21T04:27:02.299Z,4.50
2018-02-21T04:29:28.829Z,5.53
2018-02-21T04:31:54.976Z,3.90
2018-02-21T04:34:21.216Z,4.63
2018-02-21T04:36:47.405Z,5.50
2018-02-21T04:39:13.578Z,5.03
2018-02-21T04:41:40.377Z,7.80
2018-02-21T04:44:06.914Z,3.87
2018-02-21T04:46:33.093Z,4.40
2018-02-21T04:48:59.684Z,4.10
2018-02-21T04:51:25.848Z,6.30
2018-02-21T04:53:52.057Z,5.13
2018-02-21T04:59:29.091Z,3.50
2018-02-21T05:01:55.384Z,3.80
2018-02-21T05:04:21.664Z,6.60
2018-02-21T05:06:47.907Z,4.60
2018-02-21T05:09:14.135Z,5.10
2018-02-21T05:11:40.310Z,5.43
2018-02-21T05:14:06.469Z,3.60
2018-02-21T05:16:32.670Z,7.30
2018-02-21T05:18:58.861Z,5.10
2018-02-21T05:21:25.038Z,5.37
2018-02-21T05:23:51.473Z,3.70
2018-02-21T05:26:17.630Z,4.23
2018-02-21T05:28:43.838Z,5.53
2018-02-21T05:31:09.997Z,4.50
2018-02-21T05:33:36.161Z,3.60
2018-02-21T05:36:02.424Z,10.97
2018-02-21T05:38:32.577Z,7.53
2018-02-21T05:40:58.740Z,4.20
2018-02-21T05:43:25.192Z,5.73
2018-02-21T05:45:51.466Z,11.10
2018-02-21T05:48:17.641Z,5.10
2018-02-21T05:50:43.882Z,4.10
2018-02-21T05:53:10.103Z,6.03
2018-02-21T05:55:36.584Z,6.73
2018-02-21T05:58:02.761Z,3.77
2018-02-21T06:00:29.008Z,4.87
2018-02-21T06:02:55.181Z,5.30
2018-02-21T06:05:21.434Z,3.80
2018-02-21T06:07:47.691Z,11.30
2018-02-21T06:10:13.871Z,13.43
2018-02-21T06:12:40.112Z,18.57
2018-02-21T06:15:06.359Z,9.47
2018-02-21T06:17:32.528Z,11.57
2018-02-21T06:19:58.738Z,10.87
2018-02-21T06:22:24.907Z,27.57
2018-02-21T06:24:51.121Z,12.07
2018-02-21T06:27:17.421Z,9.60
2018-02-21T06:29:43.607Z,8.27
2018-02-21T06:32:09.824Z,17.60
2018-02-21T06:34:35.984Z,12.43
2018-02-21T06:37:02.212Z,14.67
2018-02-21T06:39:28.399Z,13.60
2018-02-21T06:41:54.642Z,16.10
2018-02-21T06:44:20.849Z,7.70
2018-02-21T06:46:47.025Z,15.60
2018-02-21T06:49:13.498Z,14.97
2018-02-21T06:51:39.732Z,16.67
2018-02-21T06:54:05.927Z,5.63
2018-02-21T06:56:32.120Z,8.53
2018-02-21T06:58:58.352Z,7.20
2018-02-21T07:01:24.546Z,10.90
2018-02-21T07:03:51.002Z,6.20
2018-02-21T07:06:17.318Z,5.93
2018-02-21T07:08:43.493Z,14.33
2018-02-21T07:11:09.686Z,12.90
2018-02-21T07:13:35.903Z,8.83
2018-02-21T07:16:02.115Z,27.83
2018-02-21T07:18:28.324Z,9.10
2018-02-21T07:20:54.598Z,14.30
2018-02-21T07:23:20.801Z,16.20
2018-02-21T07:25:47.006Z,16.50
2018-02-21T07:28:13.268Z,10.37
2018-02-21T07:30:39.788Z,13.43
2018-02-21T07:33:05.994Z,15.63
2018-02-21T07:35:32.214Z,15.00
2018-02-21T07:37:58.451Z,25.37
2018-02-21T07:40:24.637Z,13.20
2018-02-21T07:42:50.809Z,16.43
2018-02-21T07:45:17.040Z,7.30
2018-02-21T07:47:43.222Z,12.07
2018-02-21T07:50:09.419Z,9.50
2018-02-21T07:52:35.945Z,10.70
2018-02-21T07:55:02.147Z,8.07
2018-02-21T07:57:28.571Z,11.93
2018-02-21T07:59:54.812Z,7.63
2018-02-21T08:02:21.004Z,8.63
2018-02-21T08:04:47.174Z,5.73
2018-02-21T08:07:13.725Z,7.93
2018-02-21T08:09:39.973Z,8.47
2018-02-21T08:12:06.225Z,7.17
2018-02-21T08:14:32.498Z,13.00
2018-02-21T08:16:58.721Z,7.20
2018-02-21T08:19:24.888Z,10.53
2018-02-21T08:21:51.059Z,6.00
2018-02-21T08:24:17.280Z,10.43
2018-02-21T08:26:43.455Z,7.53
2018-02-21T08:29:09.715Z,6.43
2018-02-21T08:31:35.894Z,5.37
2018-02-21T08:34:02.072Z,7.80
2018-02-21T08:36:28.355Z,7.00
2018-02-21T08:38:54.525Z,4.27
2018-02-21T08:41:20.699Z,8.47
2018-02-21T08:43:47.015Z,5.63
2018-02-21T08:46:13.211Z,4.13
2018-02-21T08:48:39.388Z,3.80
2018-02-21T08:51:05.795Z,5.80
2018-02-21T08:53:32.052Z,4.50
2018-02-21T08:55:58.237Z,5.30
2018-02-21T08:58:24.495Z,6.03
2018-02-21T09:00:50.746Z,7.30
2018-02-21T09:03:16.936Z,6.00
2018-02-21T09:05:43.135Z,6.07
2018-02-21T09:08:09.627Z,13.03
2018-02-21T09:10:35.852Z,5.00
2018-02-21T09:13:02.068Z,15.53
2018-02-21T09:15:28.326Z,5.93
2018-02-21T09:17:54.512Z,5.80
2018-02-21T09:20:20.679Z,4.07
2018-02-21T09:22:46.973Z,10.50
2018-02-21T09:25:13.143Z,4.60
2018-02-21T09:27:39.375Z,8.93
2018-02-21T09:30:05.598Z,5.83
2018-02-21T09:32:31.796Z,5.53
2018-02-21T09:34:57.990Z,8.93
2018-02-21T09:37:24.464Z,7.60
2018-02-21T09:39:50.676Z,5.03
2018-02-21T09:42:16.863Z,8.17
2018-02-21T09:44:43.036Z,4.50
2018-02-21T09:47:09.532Z,5.53
2018-02-21T09:49:35.710Z,9.23
2018-02-21T09:52:01.894Z,6.20
2018-02-21T09:54:28.156Z,3.90
2018-02-21T09:59:26.375Z,6.03
2018-02-21T10:01:52.625Z,6.03
2018-02-21T10:04:18.804Z,5.47
2018-02-21T10:06:44.989Z,4.20
2018-02-21T10:09:11.223Z,3.90
2018-02-21T10:11:37.476Z,4.20
2018-02-21T10:14:03.703Z,5.43
2018-02-21T10:16:29.867Z,5.70
2018-02-21T10:18:56.025Z,3.70
2018-02-21T10:21:22.277Z,4.17
2018-02-21T10:23:48.447Z,4.43
2018-02-21T10:26:14.602Z,5.20
2018-02-21T10:28:40.818Z,9.80
2018-02-21T10:31:07.024Z,5.10
2018-02-21T10:33:33.244Z,5.70
2018-02-21T10:35:59.496Z,4.17
2018-02-21T10:38:25.665Z,4.80
2018-02-21T10:40:52.079Z,5.13
2018-02-21T10:43:18.364Z,5.73
2018-02-21T10:45:44.540Z,4.80
2018-02-21T10:48:10.752Z,4.77
2018-02-21T10:50:36.963Z,5.27
2018-02-21T10:53:03.201Z,4.83
2018-02-21T10:55:29.382Z,4.30
2018-02-21T10:57:55.826Z,4.70
2018-02-21T11:00:28.041Z,4.93
2018-02-21T11:02:54.218Z,5.33
2018-02-21T11:05:20.385Z,4.07
2018-02-21T11:07:46.599Z,5.90
2018-02-21T11:10:12.768Z,4.13
2018-02-21T11:12:38.952Z,3.97
2018-02-21T11:15:05.185Z,5.80
2018-02-21T11:17:31.698Z,4.57
2018-02-21T11:19:57.867Z,5.27
2018-02-21T11:22:24.102Z,21.00
2018-02-21T11:24:50.323Z,6.13
2018-02-21T11:27:16.824Z,7.40
2018-02-21T11:29:43.056Z,22.10
2018-02-21T11:32:09.245Z,19.40
2018-02-21T11:34:35.433Z,21.53
2018-02-21T11:37:01.653Z,20.30
2018-02-21T11:39:27.832Z,22.13
2018-02-21T11:41:54.010Z,25.50
2018-02-21T11:44:20.230Z,24.10
2018-02-21T11:46:46.396Z,24.40
2018-02-21T11:49:12.593Z,35.70
2018-02-21T11:51:38.766Z,31.00
2018-02-21T11:54:05.018Z,21.60
2018-02-21T11:56:31.207Z,31.33
2018-02-21T11:58:57.388Z,25.60
2018-02-21T12:01:23.856Z,27.97
2018-02-21T12:03:50.041Z,36.40
2018-02-21T12:06:16.205Z,36.20
2018-02-21T12:08:42.693Z,26.23
2018-02-21T12:11:08.871Z,32.07
2018-02-21T12:13:35.112Z,25.87
2018-02-21T12:16:01.353Z,30.43
2018-02-21T12:18:27.589Z,25.60
2018-02-21T12:20:53.775Z,33.00
2018-02-21T12:23:19.947Z,21.43
2018-02-21T12:25:46.160Z,18.47
2018-02-21T12:28:12.332Z,27.33
2018-02-21T12:30:38.532Z,26.23
2018-02-21T12:33:04.791Z,26.00
2018-02-21T12:35:30.985Z,19.80
2018-02-21T12:37:57.153Z,24.37
2018-02-21T12:40:29.700Z,27.23
2018-02-21T12:42:55.884Z,34.47
2018-02-21T12:45:22.041Z,20.20
2018-02-21T12:47:48.235Z,26.70
2018-02-21T12:50:14.510Z,21.83
2018-02-21T12:52:40.713Z,39.37
2018-02-21T12:55:06.908Z,23.70
2018-02-21T12:57:33.208Z,26.60
2018-02-21T12:59:59.444Z,22.03
2018-02-21T13:02:25.629Z,26.77
2018-02-21T13:04:51.849Z,17.80
2018-02-21T13:07:18.418Z,24.93
2018-02-21T13:09:44.958Z,16.53
2018-02-21T13:12:11.139Z,30.23
2018-02-21T13:14:37.411Z,27.93
2018-02-21T13:17:03.569Z,18.10
2018-02-21T13:19:30.070Z,20.73
2018-02-21T13:21:56.357Z,14.77
2018-02-21T13:24:22.524Z,20.33
2018-02-21T13:26:48.684Z,24.13
2018-02-21T13:29:15.196Z,18.27
2018-02-21T13:31:41.385Z,25.07
2018-02-21T13:34:07.553Z,21.83
2018-02-21T13:36:33.731Z,22.17
2018-02-21T13:38:59.920Z,14.77
2018-02-21T13:41:26.165Z,15.43
2018-02-21T13:43:52.352Z,15.97
2018-02-21T13:46:18.525Z,23.80
2018-02-21T13:48:44.833Z,16.87
2018-02-21T13:51:11.004Z,27.93
2018-02-21T13:53:37.180Z,19.93
2018-02-21T13:56:03.407Z,19.83
2018-02-21T13:58:29.840Z,15.10
2018-02-21T14:00:56.033Z,18.93
2018-02-21T14:03:22.260Z,15.23
2018-02-21T14:05:48.436Z,16.10
2018-02-21T14:08:14.616Z,14.63
2018-02-21T14:10:40.826Z,18.50
2018-02-21T14:13:07.001Z,15.70
2018-02-21T14:15:33.259Z,13.43
2018-02-21T14:17:59.465Z,25.13
2018-02-21T14:20:25.696Z,15.73
2018-02-21T14:22:51.888Z,13.03
2018-02-21T14:25:18.149Z,20.27
2018-02-21T14:27:44.400Z,14.10
2018-02-21T14:30:10.572Z,17.40
2018-02-21T14:32:36.826Z,16.63
2018-02-21T14:35:03.016Z,14.97
2018-02-21T14:37:29.473Z,13.10
2018-02-21T14:39:55.865Z,11.07
2018-02-21T14:42:22.108Z,16.70
2018-02-21T14:44:48.296Z,11.13
2018-02-21T14:47:14.469Z,11.77
2018-02-21T14:49:40.737Z,12.90
2018-02-21T14:52:06.931Z,12.30
2018-02-21T14:54:33.124Z,13.67
2018-02-21T14:56:59.346Z,14.07
2018-02-21T14:59:25.514Z,15.13
2018-02-21T15:01:51.721Z,12.90
2018-02-21T15:04:18.036Z,13.77
2018-02-21T15:06:44.228Z,12.87
2018-02-21T15:09:10.424Z,19.80
2018-02-21T15:11:36.634Z,14.80
2018-02-21T15:14:02.825Z,18.73
2018-02-21T15:16:29.077Z,10.37
2018-02-21T15:18:55.266Z,14.07
2018-02-21T15:21:21.780Z,39.57
2018-02-21T15:23:47.992Z,21.17
2018-02-21T15:26:14.222Z,14.43
2018-02-21T15:28:40.914Z,31.60
2018-02-21T15:31:07.420Z,19.13
2018-02-21T15:33:33.952Z,14.17
2018-02-21T15:36:00.383Z,19.40
2018-02-21T15:38:26.648Z,17.27
2018-02-21T15:40:52.858Z,14.27
2018-02-21T15:43:19.055Z,19.63
2018-02-21T15:45:45.306Z,12.90
2018-02-21T15:48:11.529Z,12.70
2018-02-21T15:50:37.702Z,12.90
2018-02-21T15:53:03.911Z,10.80
2018-02-21T15:55:30.112Z,12.33
2018-02-21T15:57:56.612Z,12.60
2018-02-21T16:00:22.811Z,12.07
2018-02-21T16:02:49.014Z,25.30
2018-02-21T16:05:15.261Z,11.57
2018-02-21T16:07:41.444Z,14.07
2018-02-21T16:10:07.615Z,18.00
2018-02-21T16:12:33.814Z,10.50
2018-02-21T16:15:00.000Z,12.43
2018-02-21T16:17:26.263Z,18.97
2018-02-21T16:19:52.455Z,13.33
2018-02-21T16:22:18.633Z,20.40
2018-02-21T16:24:45.147Z,11.03
2018-02-21T16:27:11.657Z,12.03
2018-02-21T16:29:38.120Z,11.50
2018-02-21T16:32:04.343Z,17.97
2018-02-21T16:34:30.578Z,14.10
2018-02-21T16:36:56.759Z,9.63
2018-02-21T16:39:22.924Z,10.07
2018-02-21T16:41:49.145Z,10.53
2018-02-21T16:44:15.590Z,7.80
2018-02-21T16:46:41.833Z,9.03
2018-02-21T16:49:08.351Z,12.87
2018-02-21T16:51:34.525Z,7.83
2018-02-21T16:54:06.736Z,13.13
2018-02-21T16:56:32.919Z,10.90
2018-02-21T16:58:59.130Z,13.60
2018-02-21T17:01:25.359Z,18.13
2018-02-21T17:03:51.531Z,10.33
2018-02-21T17:06:17.729Z,12.90
2018-02-21T17:08:43.929Z,10.50
2018-02-21T17:11:10.095Z,6.10
2018-02-21T17:13:36.314Z,9.03
2018-02-21T17:16:02.548Z,8.63
2018-02-21T17:18:28.853Z,14.07
2018-02-21T17:20:55.028Z,10.00
2018-02-21T17:23:21.497Z,6.63
2018-02-21T17:25:47.722Z,10.00
2018-02-21T17:28:13.883Z,14.13
2018-02-21T17:30:40.074Z,11.90
2018-02-21T17:33:06.298Z,11.70
2018-02-21T17:35:32.522Z,9.43
2018-02-21T17:37:58.803Z,7.97
2018-02-21T17:40:24.974Z,9.20
2018-02-21T17:42:51.143Z,10.37
2018-02-21T17:45:17.388Z,7.07
2018-02-21T17:47:43.573Z,21.13
2018-02-21T17:50:09.757Z,6.47
2018-02-21T17:52:35.974Z,10.03
2018-02-21T17:55:02.558Z,12.33
2018-02-21T17:57:28.714Z,10.93
2018-02-21T17:59:54.887Z,11.93
2018-02-21T18:02:21.081Z,6.50
2018-02-21T18:04:47.342Z,9.70
2018-02-21T18:07:13.612Z,8.67
2018-02-21T18:09:40.030Z,14.23
2018-02-21T18:12:06.215Z,7.10
2018-02-21T18:14:32.458Z,7.97
2018-02-21T18:16:58.665Z,14.10
2018-02-21T18:19:24.903Z,10.07
2018-02-21T18:21:51.117Z,14.13
2018-02-21T18:24:17.290Z,13.70
2018-02-21T18:26:43.521Z,7.23
2018-02-21T18:29:09.767Z,7.80
2018-02-21T18:31:35.970Z,11.13
2018-02-21T18:34:02.202Z,7.70
2018-02-21T18:36:28.630Z,10.03
2018-02-21T18:38:54.802Z,7.60
2018-02-21T18:41:21.006Z,9.20
2018-02-21T18:43:47.180Z,10.10
2018-02-21T18:46:13.455Z,12.80
2018-02-21T18:48:39.882Z,8.37
2018-02-21T18:51:06.194Z,9.87
2018-02-21T18:53:32.381Z,7.13
2018-02-21T18:55:58.873Z,6.40
2018-02-21T18:58:25.097Z,9.93
2018-02-21T19:00:51.293Z,10.53
2018-02-21T19:03:17.478Z,10.83
2018-02-21T19:05:43.795Z,10.10
2018-02-21T19:08:09.962Z,7.80
2018-02-21T19:10:36.231Z,18.07
2018-02-21T19:13:02.435Z,15.43
2018-02-21T19:15:28.620Z,9.90
2018-02-21T19:17:54.849Z,15.10
2018-02-21T19:20:21.063Z,11.27
2018-02-21T19:22:47.748Z,10.83
2018-02-21T19:25:13.920Z,11.50
2018-02-21T19:27:40.095Z,8.07
2018-02-21T19:30:06.337Z,9.30
2018-02-21T19:32:32.522Z,12.93
2018-02-21T19:34:58.703Z,14.50
2018-02-21T19:37:24.896Z,10.70
2018-02-21T19:39:51.114Z,15.13
2018-02-21T19:42:17.600Z,8.30
2018-02-21T19:44:43.999Z,9.93
2018-02-21T19:47:10.235Z,12.23
2018-02-21T19:49:36.657Z,12.40
2018-02-21T19:52:02.827Z,9.00
2018-02-21T19:54:29.285Z,8.90
2018-02-21T19:56:55.482Z,13.33
2018-02-21T19:59:21.702Z,6.60
2018-02-21T20:01:47.866Z,7.93
2018-02-21T20:04:14.073Z,6.70
2018-02-21T20:06:40.368Z,8.77
2018-02-21T20:09:06.551Z,11.13
2018-02-21T20:11:33.064Z,8.07
2018-02-21T20:13:59.231Z,9.50
2018-02-21T20:16:25.454Z,10.83
2018-02-21T20:18:51.956Z,9.00
2018-02-21T20:21:18.154Z,13.20
2018-02-21T20:23:44.384Z,9.53
2018-02-21T20:26:10.539Z,7.53
2018-02-21T20:28:36.718Z,7.77
2018-02-21T20:31:02.927Z,6.30
2018-02-21T20:33:29.121Z,10.83
2018-02-21T20:35:55.348Z,12.43
2018-02-21T20:38:21.567Z,9.90
2018-02-21T20:40:47.760Z,8.97
2018-02-21T20:43:13.956Z,8.40
2018-02-21T20:45:40.192Z,13.40
2018-02-21T20:48:06.362Z,12.20
2018-02-21T20:50:32.826Z,4.53
2018-02-21T20:52:59.022Z,12.33
2018-02-21T20:55:25.212Z,6.10
2018-02-21T20:57:51.443Z,6.57
2018-02-21T21:00:17.619Z,15.63
2018-02-21T21:02:44.169Z,12.63
2018-02-21T21:05:10.361Z,9.60
2018-02-21T21:07:36.751Z,19.77
2018-02-21T21:10:02.976Z,8.10
2018-02-21T21:12:29.179Z,19.30
2018-02-21T21:14:55.351Z,13.13
2018-02-21T21:17:21.565Z,9.37
2018-02-21T21:19:48.070Z,6.63
2018-02-21T21:22:14.264Z,7.43
2018-02-21T21:24:40.492Z,7.20
2018-02-21T21:27:06.666Z,7.57
2018-02-21T21:29:32.835Z,6.13
2018-02-21T21:31:59.047Z,5.70
2018-02-21T21:34:25.212Z,7.10
2018-02-21T21:36:51.405Z,5.53
2018-02-21T21:39:18.000Z,6.43
2018-02-21T21:41:44.191Z,5.73
2018-02-21T21:44:10.388Z,13.73
2018-02-21T21:46:36.632Z,4.80
2018-02-21T21:49:02.788Z,5.80
2018-02-21T21:51:28.945Z,6.70
2018-02-21T21:53:55.183Z,6.90
2018-02-21T21:56:21.356Z,8.20
2018-02-21T21:58:47.572Z,7.73
2018-02-21T22:01:13.764Z,8.47
2018-02-21T22:03:39.944Z,6.70
2018-02-21T22:06:06.154Z,6.27
2018-02-21T22:08:32.636Z,6.10
2018-02-21T22:10:58.815Z,6.63
2018-02-21T22:13:25.303Z,6.87
2018-02-21T22:15:51.496Z,7.80
2018-02-21T22:18:17.958Z,6.30
2018-02-21T22:20:44.493Z,6.43
2018-02-21T22:23:10.648Z,8.07
2018-02-21T22:25:36.832Z,6.10
2018-02-21T22:28:02.996Z,5.87
2018-02-21T22:30:29.225Z,8.30
2018-02-21T22:32:55.394Z,6.03
2018-02-21T22:35:21.611Z,5.67
2018-02-21T22:37:47.818Z,5.60
2018-02-21T22:40:13.984Z,5.47
2018-02-21T22:42:40.216Z,6.10
2018-02-21T22:45:06.371Z,6.63
2018-02-21T22:47:32.550Z,10.87
2018-02-21T22:49:58.744Z,5.20
2018-02-21T22:52:24.913Z,6.87
2018-02-21T22:54:51.093Z,5.93
2018-02-21T22:57:17.610Z,6.67
2018-02-21T22:59:43.808Z,5.23
2018-02-21T23:02:10.036Z,5.73
2018-02-21T23:04:36.341Z,4.63
2018-02-21T23:07:02.528Z,4.23
2018-02-21T23:09:28.734Z,5.23
2018-02-21T23:11:54.902Z,4.77
2018-02-21T23:14:21.064Z,6.57
2018-02-21T23:16:47.268Z,4.60
2018-02-21T23:19:13.684Z,5.17
2018-02-21T23:21:39.908Z,5.10
2018-02-21T23:24:06.103Z,4.37
2018-02-21T23:26:32.652Z,4.93
2018-02-21T23:28:58.833Z,8.20
2018-02-21T23:31:25.009Z,5.57
2018-02-21T23:33:51.281Z,5.80
2018-02-21T23:36:17.460Z,6.50
2018-02-21T23:38:43.935Z,5.53
2018-02-21T23:41:10.131Z,4.33
2018-02-21T23:43:36.293Z,4.37
2018-02-21T23:46:02.500Z,6.70
2018-02-21T23:48:28.675Z,5.47
2018-02-21T23:50:54.869Z,3.40
2018-02-21T23:53:21.076Z,6.57
2018-02-21T23:55:47.579Z,5.87
2018-02-21T23:58:13.809Z,5.23
